Time;durP1;ratioP1;P1;durP2;ratioP2;P2;SDS_P1;SDS_P2;PMS_P1;PMS_P2;Temp;Humidity;BMP_temperature;BMP_pressure;BME280_temperature;BME280_humidity;BME280_pressure;Samples;Min_cycle;Max_cycle;Signal;HPM_P1;HPM_P2
2023/08/31 00:00:45;;;;;;;1.60;1.50;;;12.10;99.90;;;;;;4898930;29;20713;-83
2023/08/31 00:03:12;;;;;;;4.18;2.08;;;12.10;99.90;;;;;;4904034;29;20028;-81
2023/08/31 00:05:42;;;;;;;5.85;1.90;;;12.00;99.90;;;;;;4915104;29;20040;-82
2023/08/31 00:08:08;;;;;;;1.85;1.60;;;12.10;99.90;;;;;;4896393;29;20041;-81
2023/08/31 00:10:35;;;;;;;1.60;1.50;;;12.10;99.90;;;;;;4899593;29;20037;-82
2023/08/31 00:13:01;;;;;;;2.05;1.60;;;12.00;99.90;;;;;;4897220;29;20077;-83
2023/08/31 00:15:28;;;;;;;1.88;1.35;;;12.10;99.90;;;;;;4898651;29;20051;-82
2023/08/31 00:17:54;;;;;;;1.40;1.30;;;12.10;99.90;;;;;;4899526;29;20422;-83
2023/08/31 00:20:21;;;;;;;1.50;1.40;;;12.10;99.90;;;;;;4896019;29;20478;-81
2023/08/31 00:22:48;;;;;;;1.70;1.60;;;12.10;99.90;;;;;;4908049;29;20039;-83
2023/08/31 00:25:13;;;;;;;1.70;1.60;;;12.00;99.90;;;;;;4906340;29;20039;-81
2023/08/31 00:27:40;;;;;;;2.38;1.40;;;12.10;99.90;;;;;;4900681;29;20040;-82
2023/08/31 00:30:07;;;;;;;1.52;1.42;;;12.10;99.90;;;;;;4903128;29;20037;-82
2023/08/31 00:32:34;;;;;;;1.60;1.50;;;12.10;99.90;;;;;;4897578;29;20413;-81
2023/08/31 00:35:00;;;;;;;4.07;2.17;;;12.10;99.90;;;;;;4900097;29;20028;-82
2023/08/31 00:37:26;;;;;;;2.15;1.67;;;12.10;99.90;;;;;;4916771;29;20546;-83
2023/08/31 00:39:55;;;;;;;1.48;1.38;;;12.10;99.90;;;;;;4912318;29;20031;-83
2023/08/31 00:42:21;;;;;;;4.30;1.95;;;12.10;99.90;;;;;;4892062;29;20029;-83
2023/08/31 00:44:48;;;;;;;4.53;1.63;;;12.10;99.90;;;;;;4903712;29;20052;-83
2023/08/31 00:47:15;;;;;;;1.70;1.60;;;12.10;99.90;;;;;;4905632;29;20032;-83
2023/08/31 00:49:41;;;;;;;2.17;1.75;;;12.10;99.90;;;;;;4893081;29;20652;-83
2023/08/31 00:52:07;;;;;;;3.25;1.70;;;12.10;99.90;;;;;;4913757;29;20041;-83
2023/08/31 00:54:34;;;;;;;1.98;1.65;;;12.10;99.90;;;;;;4877831;29;20047;-84
2023/08/31 00:57:01;;;;;;;2.20;1.80;;;12.00;99.90;;;;;;4912871;29;20035;-82
2023/08/31 00:59:28;;;;;;;1.80;1.70;;;12.00;99.90;;;;;;4899025;29;20032;-80
2023/08/31 01:02:22;;;;;;;1.75;1.58;;;12.00;99.90;;;;;;4883566;29;20037;-83
2023/08/31 01:05:07;;;;;;;5.35;1.90;;;12.00;99.90;;;;;;4905745;29;20081;-82
2023/08/31 01:07:36;;;;;;;3.22;1.75;;;11.90;99.90;;;;;;4902259;29;20484;-82
2023/08/31 01:10:13;;;;;;;4.03;1.98;;;11.90;99.90;;;;;;4897535;29;20033;-82
2023/08/31 01:12:42;;;;;;;2.85;1.95;;;11.90;99.90;;;;;;4906915;29;20421;-82
2023/08/31 01:15:11;;;;;;;2.30;2.10;;;11.90;99.90;;;;;;4903625;29;20043;-80
2023/08/31 01:17:45;;;;;;;2.17;1.98;;;11.80;99.90;;;;;;4898606;29;20119;-83
2023/08/31 01:20:17;;;;;;;2.38;2.17;;;11.80;99.90;;;;;;4901440;29;20397;-81
2023/08/31 01:23:00;;;;;;;2.75;2.33;;;11.80;99.90;;;;;;4918901;29;20104;-82
2023/08/31 01:25:26;;;;;;;3.97;2.08;;;11.80;99.90;;;;;;4905582;29;20039;-82
2023/08/31 01:27:53;;;;;;;2.28;1.92;;;11.80;99.90;;;;;;4912309;29;20032;-81
2023/08/31 01:30:18;;;;;;;4.18;2.15;;;11.80;99.90;;;;;;4900459;29;20040;-82
2023/08/31 01:32:45;;;;;;;2.25;2.10;;;11.80;99.90;;;;;;4908358;29;20052;-83
2023/08/31 01:35:12;;;;;;;2.75;2.45;;;11.70;99.90;;;;;;4911353;29;20401;-81
2023/08/31 01:37:52;;;;;;;1.98;1.83;;;11.80;99.90;;;;;;4904438;29;20547;-82
2023/08/31 01:40:36;;;;;;;2.47;2.13;;;11.80;99.90;;;;;;4904445;29;20028;-83
2023/08/31 01:43:06;;;;;;;2.20;2.00;;;11.80;99.90;;;;;;4898489;29;20462;-83
2023/08/31 01:45:34;;;;;;;2.65;2.40;;;11.80;99.90;;;;;;4927195;29;20029;-83
2023/08/31 01:48:00;;;;;;;2.95;2.00;;;11.80;99.90;;;;;;4913213;29;20489;-84
2023/08/31 01:50:25;;;;;;;2.13;1.92;;;11.70;99.90;;;;;;4896583;29;20055;-83
2023/08/31 01:53:14;;;;;;;2.38;2.20;;;11.70;99.90;;;;;;4910320;29;20060;-82
2023/08/31 01:55:41;;;;;;;2.60;2.00;;;11.60;99.90;;;;;;4923061;29;20065;-83
2023/08/31 01:58:07;;;;;;;2.75;2.53;;;11.60;99.90;;;;;;4915578;29;20452;-83
2023/08/31 02:00:34;;;;;;;2.20;2.00;;;11.60;99.90;;;;;;4912625;29;20052;-82
2023/08/31 02:03:01;;;;;;;2.38;2.13;;;11.60;99.90;;;;;;4908753;29;20457;-85
2023/08/31 02:05:27;;;;;;;2.40;1.95;;;11.60;99.90;;;;;;4905932;29;20480;-83
2023/08/31 02:07:53;;;;;;;2.55;2.30;;;11.60;99.90;;;;;;4920813;29;20036;-82
2023/08/31 02:10:19;;;;;;;2.38;1.88;;;11.60;99.90;;;;;;4911499;29;20577;-82
2023/08/31 02:12:44;;;;;;;5.85;2.60;;;11.60;99.90;;;;;;4911172;29;20037;-82
2023/08/31 02:15:10;;;;;;;2.85;2.28;;;11.60;99.90;;;;;;4906540;29;20037;-83
2023/08/31 02:17:36;;;;;;;3.97;2.30;;;11.70;99.90;;;;;;4912390;29;20514;-85
2023/08/31 02:20:04;;;;;;;2.45;2.25;;;11.70;99.90;;;;;;4909292;29;20035;-81
2023/08/31 02:22:36;;;;;;;2.72;2.20;;;11.70;99.90;;;;;;4920603;29;20025;-82
2023/08/31 02:25:02;;;;;;;2.45;2.25;;;11.80;99.90;;;;;;4909147;29;20040;-83
2023/08/31 02:27:28;;;;;;;2.38;2.08;;;11.80;99.90;;;;;;4908795;29;20517;-81
2023/08/31 02:29:55;;;;;;;2.67;2.47;;;11.80;99.90;;;;;;4927983;29;20059;-82
2023/08/31 02:32:20;;;;;;;4.43;2.88;;;11.80;99.90;;;;;;4890020;29;20036;-82
2023/08/31 02:34:46;;;;;;;3.60;2.72;;;11.80;99.90;;;;;;4912604;29;20035;-82
2023/08/31 02:37:12;;;;;;;4.15;2.67;;;11.80;99.90;;;;;;4909736;29;20029;-83
2023/08/31 02:39:37;;;;;;;3.65;3.22;;;11.80;99.90;;;;;;4911933;29;20088;-85
2023/08/31 02:42:05;;;;;;;4.10;3.00;;;11.90;99.90;;;;;;4909060;29;20088;-83
2023/08/31 02:44:31;;;;;;;2.90;2.50;;;11.80;99.90;;;;;;4892008;29;20100;-84
2023/08/31 02:46:57;;;;;;;3.25;2.95;;;11.80;99.90;;;;;;4914466;29;20032;-82
2023/08/31 02:49:23;;;;;;;4.70;2.70;;;11.80;99.90;;;;;;4896301;29;20041;-82
2023/08/31 02:51:49;;;;;;;4.22;2.85;;;11.80;99.90;;;;;;4923318;29;20036;-82
2023/08/31 02:54:15;;;;;;;4.88;3.05;;;11.80;99.90;;;;;;4926866;29;20088;-82
2023/08/31 02:56:41;;;;;;;3.33;2.72;;;11.80;99.90;;;;;;4913799;29;20176;-82
2023/08/31 02:59:07;;;;;;;3.28;2.95;;;11.80;99.90;;;;;;4913489;29;20048;-82
2023/08/31 03:01:33;;;;;;;4.50;3.38;;;11.80;99.90;;;;;;4924051;29;20592;-83
2023/08/31 03:03:59;;;;;;;6.63;2.75;;;11.70;99.90;;;;;;4912517;29;20029;-84
2023/08/31 03:06:26;;;;;;;6.40;3.03;;;11.70;99.90;;;;;;4913917;29;20131;-85
2023/08/31 03:08:52;;;;;;;4.95;3.17;;;11.60;99.90;;;;;;4910049;29;20032;-84
2023/08/31 03:11:18;;;;;;;3.15;2.85;;;11.60;99.90;;;;;;4898536;29;20052;-82
2023/08/31 03:13:43;;;;;;;4.03;2.92;;;11.50;99.90;;;;;;4917560;29;20029;-83
2023/08/31 03:16:11;;;;;;;3.28;2.65;;;11.50;99.90;;;;;;4923173;29;20400;-83
2023/08/31 03:18:37;;;;;;;2.63;2.17;;;11.60;99.90;;;;;;4906394;29;20033;-81
2023/08/31 03:21:02;;;;;;;2.60;2.40;;;11.50;99.90;;;;;;4895071;29;20480;-84
2023/08/31 03:23:29;;;;;;;3.78;2.58;;;11.50;99.90;;;;;;4902791;29;20056;-83
2023/08/31 03:25:56;;;;;;;3.20;2.40;;;11.50;99.90;;;;;;4903718;29;20486;-83
2023/08/31 03:28:26;;;;;;;2.85;2.22;;;11.50;99.90;;;;;;4905826;29;20061;-83
2023/08/31 03:30:56;;;;;;;3.20;2.50;;;11.50;99.90;;;;;;4896976;29;20056;-80
2023/08/31 03:33:22;;;;;;;5.20;2.30;;;11.50;99.90;;;;;;4898193;29;20033;-82
2023/08/31 03:35:48;;;;;;;2.70;2.22;;;11.50;99.90;;;;;;4918034;29;20032;-82
2023/08/31 03:38:14;;;;;;;2.63;2.20;;;11.50;99.90;;;;;;4911178;29;20042;-81
2023/08/31 03:40:39;;;;;;;3.40;2.03;;;11.50;99.90;;;;;;4900540;29;20036;-82
2023/08/31 03:43:05;;;;;;;4.07;2.15;;;11.60;99.90;;;;;;4896923;29;20386;-81
2023/08/31 03:45:31;;;;;;;2.28;2.08;;;11.60;99.90;;;;;;4906642;29;20040;-81
2023/08/31 03:48:02;;;;;;;3.05;1.98;;;11.60;99.90;;;;;;4914038;29;20034;-82
2023/08/31 03:50:28;;;;;;;2.55;2.33;;;11.60;99.90;;;;;;4868935;29;20055;-84
2023/08/31 03:52:55;;;;;;;7.82;2.17;;;11.60;99.90;;;;;;4903051;29;20078;-82
2023/08/31 03:55:22;;;;;;;2.53;1.92;;;11.60;99.90;;;;;;4921219;29;20067;-82
2023/08/31 03:57:48;;;;;;;2.53;2.13;;;11.60;99.90;;;;;;4903358;29;20060;-82
2023/08/31 04:00:19;;;;;;;5.88;2.60;;;11.50;99.90;;;;;;4909695;29;20553;-83
2023/08/31 04:02:45;;;;;;;6.30;2.38;;;11.50;99.90;;;;;;4916545;29;20383;-83
2023/08/31 04:05:15;;;;;;;2.50;2.30;;;11.50;99.90;;;;;;4914276;29;20059;-81
2023/08/31 04:07:43;;;;;;;3.63;2.47;;;11.50;99.90;;;;;;4903142;29;20032;-82
2023/08/31 04:10:09;;;;;;;3.17;2.33;;;11.60;99.90;;;;;;4904405;29;20081;-81
2023/08/31 04:12:35;;;;;;;3.58;2.05;;;11.60;99.90;;;;;;4903029;29;20058;-81
2023/08/31 04:15:00;;;;;;;3.45;2.10;;;11.50;99.90;;;;;;4910103;29;20044;-84
2023/08/31 04:17:26;;;;;;;2.40;2.20;;;11.50;99.90;;;;;;4887092;29;20121;-82
2023/08/31 04:19:52;;;;;;;3.40;2.28;;;11.50;99.90;;;;;;4900643;29;20136;-82
2023/08/31 04:22:18;;;;;;;2.58;2.22;;;11.60;99.90;;;;;;4905007;29;20020;-82
2023/08/31 04:24:44;;;;;;;8.05;2.35;;;11.60;99.90;;;;;;4919622;29;20514;-81
2023/08/31 04:27:10;;;;;;;2.45;2.20;;;11.60;99.90;;;;;;4913311;29;20028;-80
2023/08/31 04:29:36;;;;;;;2.78;1.90;;;11.60;99.90;;;;;;4894708;29;20175;-83
2023/08/31 04:32:02;;;;;;;3.25;2.22;;;11.60;99.90;;;;;;4900749;29;20088;-81
2023/08/31 04:34:28;;;;;;;5.80;2.10;;;11.60;99.90;;;;;;4898030;29;20055;-79
2023/08/31 04:36:54;;;;;;;7.07;2.40;;;11.60;99.90;;;;;;4906962;29;20036;-82
2023/08/31 04:39:19;;;;;;;5.43;3.00;;;11.60;99.90;;;;;;4890001;29;20037;-82
2023/08/31 04:41:45;;;;;;;5.70;3.20;;;11.60;99.90;;;;;;4898011;29;20040;-80
2023/08/31 04:44:11;;;;;;;4.53;2.95;;;11.60;99.90;;;;;;4898348;29;20025;-80
2023/08/31 04:46:38;;;;;;;4.60;3.45;;;11.60;99.90;;;;;;4898801;29;20036;-82
2023/08/31 04:49:04;;;;;;;6.25;3.10;;;11.60;99.90;;;;;;4898980;29;20189;-80
2023/08/31 04:51:35;;;;;;;4.60;3.30;;;11.60;99.90;;;;;;4888411;29;20037;-80
2023/08/31 04:54:01;;;;;;;5.25;3.33;;;11.70;99.90;;;;;;4901943;29;20032;-81
2023/08/31 04:56:31;;;;;;;3.75;2.60;;;11.70;99.90;;;;;;4905761;29;20060;-81
2023/08/31 04:58:57;;;;;;;4.28;3.45;;;11.70;99.90;;;;;;4900294;29;20027;-81
2023/08/31 05:01:23;;;;;;;5.38;3.15;;;11.70;99.90;;;;;;4893140;29;20422;-81
2023/08/31 05:03:48;;;;;;;6.88;2.80;;;11.70;99.90;;;;;;4903129;29;20296;-80
2023/08/31 05:06:14;;;;;;;4.63;3.20;;;11.70;99.90;;;;;;4917076;29;20037;-82
2023/08/31 05:08:40;;;;;;;5.97;3.10;;;11.70;99.90;;;;;;4902332;29;20037;-83
2023/08/31 05:11:06;;;;;;;4.47;2.92;;;11.80;99.90;;;;;;4896323;29;20033;-84
2023/08/31 05:13:32;;;;;;;4.00;3.50;;;11.80;99.90;;;;;;4903200;29;20125;-83
2023/08/31 05:15:58;;;;;;;5.75;3.45;;;11.80;99.90;;;;;;4886569;29;20440;-84
2023/08/31 05:18:24;;;;;;;6.43;3.40;;;11.80;99.90;;;;;;4903795;29;20115;-84
2023/08/31 05:20:50;;;;;;;6.10;3.15;;;11.80;99.90;;;;;;4895760;29;20060;-84
2023/08/31 05:23:16;;;;;;;6.22;3.47;;;11.80;99.90;;;;;;4896981;29;20029;-83
2023/08/31 05:25:42;;;;;;;3.83;2.72;;;11.90;99.90;;;;;;4898813;29;20033;-84
2023/08/31 05:28:08;;;;;;;4.03;3.03;;;11.90;99.90;;;;;;4924705;29;20036;-83
2023/08/31 05:30:34;;;;;;;3.65;2.92;;;11.90;99.90;;;;;;4897254;29;20039;-82
2023/08/31 05:33:01;;;;;;;5.03;3.08;;;12.00;99.90;;;;;;4896261;29;20037;-84
2023/08/31 05:35:27;;;;;;;4.25;2.83;;;12.00;99.90;;;;;;4898006;29;20650;-84
2023/08/31 05:37:53;;;;;;;4.78;3.20;;;12.00;99.90;;;;;;4899971;29;20039;-83
2023/08/31 05:40:18;;;;;;;5.18;3.70;;;12.00;99.90;;;;;;4900798;29;20033;-82
2023/08/31 05:42:44;;;;;;;5.63;3.53;;;12.00;99.90;;;;;;4895392;29;20041;-83
2023/08/31 05:45:10;;;;;;;3.90;3.50;;;12.10;99.90;;;;;;4884444;29;20033;-83
2023/08/31 05:47:54;;;;;;;7.55;3.55;;;12.10;99.90;;;;;;4908624;29;20064;-82
2023/08/31 05:50:20;;;;;;;3.78;3.30;;;12.10;99.90;;;;;;4898588;29;20032;-83
2023/08/31 05:52:46;;;;;;;5.30;3.22;;;12.10;99.90;;;;;;4880196;29;20096;-83
2023/08/31 05:55:11;;;;;;;4.97;3.38;;;12.10;99.90;;;;;;4906049;29;20545;-82
2023/08/31 05:57:37;;;;;;;7.18;3.97;;;12.20;99.90;;;;;;4916785;29;20044;-84
2023/08/31 06:00:05;;;;;;;5.80;3.95;;;12.30;99.90;;;;;;4903445;29;20040;-80
2023/08/31 06:02:38;;;;;;;3.42;2.92;;;12.40;99.90;;;;;;4897611;29;20244;-82
2023/08/31 06:05:05;;;;;;;4.30;3.28;;;12.40;99.90;;;;;;4911246;29;20062;-82
2023/08/31 06:07:31;;;;;;;5.30;3.83;;;12.40;99.90;;;;;;4912360;29;20048;-83
2023/08/31 06:09:57;;;;;;;4.47;3.35;;;12.40;99.90;;;;;;4900088;29;20084;-82
2023/08/31 06:12:23;;;;;;;6.40;2.72;;;12.50;99.90;;;;;;4902705;29;20025;-82
2023/08/31 06:14:49;;;;;;;5.18;3.17;;;12.40;99.90;;;;;;4897801;29;20451;-79
2023/08/31 06:17:15;;;;;;;3.95;2.67;;;12.40;99.90;;;;;;4909648;29;20031;-81
2023/08/31 06:19:42;;;;;;;4.32;2.50;;;12.40;99.90;;;;;;4894831;29;20775;-83
2023/08/31 06:22:08;;;;;;;4.15;2.60;;;12.50;99.90;;;;;;4901369;29;20227;-82
2023/08/31 06:24:34;;;;;;;4.88;2.90;;;12.50;99.90;;;;;;4906300;29;20028;-83
2023/08/31 06:27:00;;;;;;;4.47;2.88;;;12.40;99.90;;;;;;4911331;29;20028;-83
2023/08/31 06:29:26;;;;;;;5.20;3.80;;;12.50;99.90;;;;;;4896190;29;20062;-82
2023/08/31 06:31:52;;;;;;;5.03;3.58;;;12.60;99.90;;;;;;4896021;29;20045;-80
2023/08/31 06:34:18;;;;;;;13.90;4.20;;;12.80;99.90;;;;;;4909357;29;20064;-82
2023/08/31 06:36:44;;;;;;;4.25;3.80;;;12.90;99.90;;;;;;4900585;29;20067;-82
2023/08/31 06:39:10;;;;;;;7.20;4.47;;;12.90;99.90;;;;;;4898598;29;20032;-82
2023/08/31 06:41:36;;;;;;;8.75;4.03;;;13.00;99.90;;;;;;4897670;29;20047;-82
2023/08/31 06:44:22;;;;;;;5.78;4.18;;;13.00;99.90;;;;;;4910840;29;20060;-82
2023/08/31 06:47:09;;;;;;;7.97;4.70;;;13.20;99.90;;;;;;4905261;29;20048;-82
2023/08/31 06:49:36;;;;;;;6.72;3.72;;;13.50;99.90;;;;;;4916955;29;20046;-79
2023/08/31 06:52:03;;;;;;;6.80;3.50;;;13.70;99.90;;;;;;4909852;29;20036;-80
2023/08/31 06:54:47;;;;;;;9.00;3.83;;;13.90;99.90;;;;;;4899518;29;20059;-80
2023/08/31 06:57:13;;;;;;;5.97;3.85;;;13.80;99.90;;;;;;4905175;29;20032;-84
2023/08/31 06:59:38;;;;;;;4.50;3.70;;;13.80;99.90;;;;;;4909462;29;20053;-82
2023/08/31 07:02:04;;;;;;;6.57;4.07;;;13.70;99.90;;;;;;4917502;29;20052;-80
2023/08/31 07:04:30;;;;;;;8.32;4.30;;;13.60;99.90;;;;;;4903250;29;20040;-81
2023/08/31 07:07:16;;;;;;;7.03;3.70;;;13.70;99.90;;;;;;4903864;29;20036;-82
2023/08/31 07:09:43;;;;;;;;;;;13.70;99.90;;;;;;4907246;29;20200;-81
2023/08/31 07:12:09;;;;;;;5.47;3.55;;;13.70;99.90;;;;;;4906036;29;19911;-82
2023/08/31 07:14:35;;;;;;;8.40;3.92;;;13.80;99.90;;;;;;4899974;29;20251;-82
2023/08/31 07:17:05;;;;;;;5.20;3.40;;;13.80;99.90;;;;;;4912053;29;20076;-82
2023/08/31 07:19:30;;;;;;;5.85;3.38;;;13.80;99.90;;;;;;4895844;29;20029;-79
2023/08/31 07:21:56;;;;;;;5.85;3.85;;;13.80;99.90;;;;;;4897992;29;20064;-82
2023/08/31 07:24:23;;;;;;;6.88;3.92;;;13.80;99.90;;;;;;4899521;29;20509;-82
2023/08/31 07:26:50;;;;;;;5.55;3.47;;;13.90;99.90;;;;;;4907787;29;20053;-79
2023/08/31 07:29:16;;;;;;;5.97;3.80;;;13.90;99.90;;;;;;4900816;29;20105;-81
2023/08/31 07:31:42;;;;;;;4.28;3.53;;;13.90;99.90;;;;;;4902822;29;20064;-80
2023/08/31 07:34:08;;;;;;;7.63;3.78;;;13.90;99.90;;;;;;4911626;29;20443;-82
2023/08/31 07:36:34;;;;;;;5.53;3.40;;;13.90;99.90;;;;;;4906441;29;20131;-82
2023/08/31 07:39:00;;;;;;;5.82;3.65;;;13.90;99.90;;;;;;4906982;29;20037;-82
2023/08/31 07:41:25;;;;;;;6.15;4.07;;;13.80;99.90;;;;;;4902051;29;20450;-79
2023/08/31 07:43:51;;;;;;;4.85;3.92;;;13.80;99.90;;;;;;4906358;29;20055;-81
2023/08/31 07:46:18;;;;;;;4.85;4.07;;;13.90;99.90;;;;;;4902034;29;20032;-81
2023/08/31 07:48:43;;;;;;;5.05;3.30;;;14.00;99.90;;;;;;4898517;29;20520;-80
2023/08/31 07:51:09;;;;;;;7.38;3.67;;;14.10;99.90;;;;;;4891368;29;20044;-81
2023/08/31 07:53:35;;;;;;;9.50;4.07;;;14.10;99.90;;;;;;4899104;29;20044;-80
2023/08/31 07:56:01;;;;;;;7.47;4.25;;;14.20;99.90;;;;;;4903275;29;20040;-81
2023/08/31 07:58:27;;;;;;;6.07;4.45;;;14.40;99.90;;;;;;4906398;29;20096;-81
2023/08/31 08:00:54;;;;;;;9.07;4.30;;;14.60;99.90;;;;;;4899169;29;20060;-80
2023/08/31 08:03:20;;;;;;;5.05;3.22;;;14.80;99.90;;;;;;4910464;29;20028;-80
2023/08/31 08:05:46;;;;;;;5.63;4.10;;;14.80;99.90;;;;;;4902122;29;20417;-79
2023/08/31 08:08:12;;;;;;;4.90;3.58;;;14.80;99.90;;;;;;4902414;29;20036;-79
2023/08/31 08:10:38;;;;;;;7.97;3.60;;;14.80;99.90;;;;;;4893393;29;20037;-81
2023/08/31 08:13:04;;;;;;;5.57;3.60;;;14.70;99.90;;;;;;4904063;29;20048;-81
2023/08/31 08:15:31;;;;;;;4.57;3.28;;;14.60;99.90;;;;;;4901740;29;20741;-80
2023/08/31 08:17:57;;;;;;;8.40;3.58;;;14.60;99.90;;;;;;4907092;29;20029;-81
2023/08/31 08:20:23;;;;;;;5.03;3.47;;;14.50;99.90;;;;;;4902167;29;20103;-82
2023/08/31 08:22:52;;;;;;;7.68;3.40;;;14.40;99.90;;;;;;4907416;29;20033;-81
2023/08/31 08:25:19;;;;;;;9.48;3.25;;;14.30;99.90;;;;;;4911352;29;20094;-80
2023/08/31 08:27:45;;;;;;;5.20;2.88;;;14.20;99.90;;;;;;4897821;29;20041;-80
2023/08/31 08:30:11;;;;;;;5.32;3.58;;;14.20;99.90;;;;;;4891449;29;20037;-79
2023/08/31 08:32:37;;;;;;;6.18;3.30;;;14.10;99.90;;;;;;4909790;29;20409;-80
2023/08/31 08:35:03;;;;;;;8.25;3.47;;;14.00;99.90;;;;;;4914731;29;20040;-82
2023/08/31 08:37:29;;;;;;;6.10;3.60;;;14.00;99.90;;;;;;4915300;29;20127;-82
2023/08/31 08:39:55;;;;;;;5.78;3.42;;;14.10;99.90;;;;;;4900692;29;20104;-81
2023/08/31 08:42:24;;;;;;;9.98;4.40;;;14.30;99.90;;;;;;4904546;29;20063;-78
2023/08/31 08:44:51;;;;;;;5.38;3.50;;;14.50;99.90;;;;;;4905890;29;20482;-81
2023/08/31 08:47:17;;;;;;;5.97;3.55;;;14.70;99.90;;;;;;4901904;29;20031;-81
2023/08/31 08:49:44;;;;;;;5.63;3.55;;;14.80;99.90;;;;;;4906239;29;20037;-82
2023/08/31 08:52:11;;;;;;;6.07;3.47;;;15.00;99.90;;;;;;4909794;29;20032;-81
2023/08/31 08:54:38;;;;;;;4.55;3.10;;;15.10;99.90;;;;;;4906606;29;20051;-79
2023/08/31 08:57:04;;;;;;;3.30;2.95;;;15.30;99.90;;;;;;4910649;29;20056;-82
2023/08/31 08:59:31;;;;;;;5.93;2.70;;;15.50;99.90;;;;;;4912892;29;20029;-81
2023/08/31 09:01:57;;;;;;;6.53;4.05;;;15.70;99.90;;;;;;4917392;29;20032;-81
2023/08/31 09:04:23;;;;;;;9.23;6.43;;;15.80;99.90;;;;;;4889767;29;20132;-82
2023/08/31 09:06:52;;;;;;;3.30;2.70;;;16.00;99.90;;;;;;4903717;29;20076;-81
2023/08/31 09:09:18;;;;;;;5.05;2.83;;;16.10;99.90;;;;;;4899313;29;20047;-79
2023/08/31 09:11:45;;;;;;;3.13;2.35;;;16.10;99.90;;;;;;4903843;29;20040;-80
2023/08/31 09:14:19;;;;;;;6.03;2.13;;;16.10;99.90;;;;;;4897567;29;20556;-81
2023/08/31 09:16:46;;;;;;;4.72;2.40;;;16.00;99.90;;;;;;4904771;29;20029;-81
2023/08/31 09:19:23;;;;;;;4.50;2.53;;;16.00;99.90;;;;;;4902385;29;20030;-81
2023/08/31 09:21:51;;;;;;;5.72;1.90;;;16.10;99.90;;;;;;4898499;29;20049;-78
2023/08/31 09:24:19;;;;;;;2.45;1.90;;;16.10;99.90;;;;;;4902848;29;20024;-83
2023/08/31 09:26:47;;;;;;;3.42;2.55;;;16.10;99.90;;;;;;4912923;29;20115;-81
2023/08/31 09:29:14;;;;;;;3.30;2.15;;;16.20;99.90;;;;;;4901954;29;20041;-83
2023/08/31 09:31:43;;;;;;;4.70;2.78;;;16.30;99.90;;;;;;4892587;29;20419;-80
2023/08/31 09:34:09;;;;;;;4.10;1.90;;;16.40;99.90;;;;;;4916505;29;20062;-81
2023/08/31 09:36:39;;;;;;;4.07;2.13;;;16.40;99.90;;;;;;4926550;29;21236;-81
2023/08/31 09:39:09;;;;;;;3.83;2.38;;;16.40;99.90;;;;;;4914545;29;20020;-79
2023/08/31 09:41:35;;;;;;;3.30;1.70;;;16.30;99.90;;;;;;4903211;29;20345;-82
2023/08/31 09:44:18;;;;;;;3.83;2.08;;;16.20;99.90;;;;;;4913192;29;20036;-81
2023/08/31 09:46:45;;;;;;;2.63;1.90;;;16.00;99.90;;;;;;4901505;29;20036;-81
2023/08/31 09:49:14;;;;;;;3.35;2.00;;;15.80;99.90;;;;;;4908682;29;20036;-79
2023/08/31 09:51:48;;;;;;;3.22;1.80;;;15.80;99.90;;;;;;4885105;29;20041;-82
2023/08/31 09:54:16;;;;;;;3.83;1.70;;;15.80;99.90;;;;;;4893487;29;20048;-81
2023/08/31 09:56:43;;;;;;;5.45;1.95;;;15.70;99.90;;;;;;4896979;29;20104;-80
2023/08/31 09:59:11;;;;;;;4.50;2.05;;;15.70;99.90;;;;;;4894356;29;20040;-80
2023/08/31 10:01:37;;;;;;;2.92;1.85;;;15.70;99.90;;;;;;4910400;29;20045;-80
2023/08/31 10:04:08;;;;;;;3.65;1.58;;;15.60;99.90;;;;;;4903235;29;20036;-80
2023/08/31 10:06:36;;;;;;;3.70;1.40;;;15.50;99.90;;;;;;4892513;29;20040;-79
2023/08/31 10:09:03;;;;;;;2.58;1.90;;;15.40;99.90;;;;;;4893380;29;20048;-81
2023/08/31 10:11:31;;;;;;;2.47;1.60;;;15.30;99.90;;;;;;4898952;29;20541;-80
2023/08/31 10:13:58;;;;;;;2.53;1.65;;;15.30;99.90;;;;;;4898922;29;20033;-81
2023/08/31 10:16:27;;;;;;;3.13;1.50;;;15.30;99.90;;;;;;4902286;29;20111;-81
2023/08/31 10:18:55;;;;;;;11.57;1.95;;;15.40;99.90;;;;;;4896140;29;20037;-81
2023/08/31 10:21:21;;;;;;;3.83;1.55;;;15.50;99.90;;;;;;4896443;29;20486;-80
2023/08/31 10:23:51;;;;;;;4.55;1.50;;;15.60;99.90;;;;;;4910960;29;20033;-80
2023/08/31 10:26:43;;;;;;;1.80;1.45;;;15.70;99.90;;;;;;4906598;29;20521;-80
2023/08/31 10:29:27;;;;;;;2.08;1.70;;;15.90;99.90;;;;;;4898760;29;20123;-80
2023/08/31 10:31:54;;;;;;;3.33;1.40;;;16.20;99.90;;;;;;4897142;29;20033;-79
2023/08/31 10:34:35;;;;;;;3.33;1.40;;;16.50;99.90;;;;;;4903001;29;20048;-80
2023/08/31 10:37:03;;;;;;;2.15;1.60;;;16.70;99.90;;;;;;4909053;29;20029;-81
2023/08/31 10:39:38;;;;;;;1.50;1.40;;;16.70;99.90;;;;;;4892394;29;20577;-81
2023/08/31 10:42:04;;;;;;;3.70;1.60;;;16.60;99.90;;;;;;4900036;29;20025;-81
2023/08/31 10:44:34;;;;;;;3.55;1.55;;;16.40;99.90;;;;;;4894408;29;20486;-80
2023/08/31 10:47:03;;;;;;;2.15;1.38;;;16.30;99.90;;;;;;4907760;29;20048;-81
2023/08/31 10:49:29;;;;;;;2.22;1.65;;;16.30;99.90;;;;;;4893814;29;20478;-79
2023/08/31 10:51:57;;;;;;;3.90;1.80;;;16.10;99.90;;;;;;4898144;29;20056;-80
2023/08/31 10:54:25;;;;;;;3.33;1.50;;;16.00;99.90;;;;;;4904858;29;20040;-82
2023/08/31 10:57:06;;;;;;;3.60;1.30;;;16.00;99.90;;;;;;4906200;29;20037;-80
2023/08/31 10:59:54;;;;;;;1.67;1.58;;;16.10;99.90;;;;;;4891321;29;20036;-83
2023/08/31 11:02:43;;;;;;;7.95;1.77;;;16.20;99.90;;;;;;4901650;29;20396;-79
2023/08/31 11:05:12;;;;;;;2.80;1.48;;;16.40;99.90;;;;;;4899554;29;20024;-79
2023/08/31 11:07:40;;;;;;;1.80;1.60;;;16.50;99.90;;;;;;4896184;29;20096;-81
2023/08/31 11:10:09;;;;;;;2.70;1.35;;;16.60;99.90;;;;;;4893974;29;20095;-79
2023/08/31 11:12:35;;;;;;;2.63;1.20;;;16.50;99.90;;;;;;4894244;29;20615;-81
2023/08/31 11:15:00;;;;;;;2.10;1.50;;;16.50;99.90;;;;;;4898995;29;20048;-80
2023/08/31 11:17:27;;;;;;;1.75;1.30;;;16.50;99.90;;;;;;4896846;29;20450;-81
2023/08/31 11:19:53;;;;;;;4.82;1.50;;;16.40;99.90;;;;;;4897192;29;20170;-78
2023/08/31 11:22:19;;;;;;;2.03;1.10;;;16.50;99.90;;;;;;4889941;29;20060;-80
2023/08/31 11:24:46;;;;;;;2.80;1.23;;;16.70;99.90;;;;;;4896902;29;20112;-81
2023/08/31 11:27:12;;;;;;;4.10;1.27;;;16.70;99.90;;;;;;4896215;29;20453;-80
2023/08/31 11:29:42;;;;;;;3.47;1.17;;;16.70;99.90;;;;;;4896398;29;20055;-79
2023/08/31 11:32:08;;;;;;;1.65;1.20;;;16.70;99.90;;;;;;4898652;29;20184;-82
2023/08/31 11:34:34;;;;;;;2.38;1.42;;;16.60;99.90;;;;;;4897355;29;20510;-82
2023/08/31 11:37:00;;;;;;;2.33;1.13;;;16.60;99.90;;;;;;4908308;29;20040;-82
2023/08/31 11:39:26;;;;;;;1.73;1.17;;;16.60;99.90;;;;;;4899759;29;20327;-81
2023/08/31 11:41:52;;;;;;;2.95;1.40;;;16.50;99.90;;;;;;4897774;29;20052;-80
2023/08/31 11:44:18;;;;;;;4.13;1.17;;;16.60;99.90;;;;;;4894958;29;20032;-79
2023/08/31 11:46:49;;;;;;;3.55;1.27;;;16.80;99.90;;;;;;4902773;29;20045;-83
2023/08/31 11:49:17;;;;;;;3.50;1.17;;;16.90;99.90;;;;;;4892244;29;20088;-82
2023/08/31 11:51:44;;;;;;;2.67;1.13;;;17.20;99.90;;;;;;4899747;29;20067;-83
2023/08/31 11:54:10;;;;;;;2.42;0.90;;;17.40;99.90;;;;;;4911524;29;20126;-82
2023/08/31 11:56:43;;;;;;;1.90;1.30;;;17.60;99.90;;;;;;4910111;29;20075;-81
2023/08/31 11:59:13;;;;;;;2.10;1.00;;;17.80;99.90;;;;;;4900963;29;20048;-81
2023/08/31 12:01:40;;;;;;;3.10;1.10;;;17.90;99.90;;;;;;4894002;29;20390;-79
2023/08/31 12:04:11;;;;;;;2.70;1.25;;;18.00;99.90;;;;;;4903010;29;20060;-81
2023/08/31 12:07:06;;;;;;;1.38;1.02;;;18.00;99.90;;;;;;4904084;29;20150;-80
2023/08/31 12:09:32;;;;;;;2.88;1.10;;;18.00;99.90;;;;;;4897252;29;20049;-82
2023/08/31 12:12:00;;;;;;;2.78;1.13;;;17.90;99.90;;;;;;4905834;29;20534;-82
2023/08/31 12:14:27;;;;;;;5.03;1.48;;;17.90;99.90;;;;;;4897306;29;20040;-81
2023/08/31 12:17:01;;;;;;;2.42;1.52;;;17.70;99.90;;;;;;4922993;29;20047;-81
2023/08/31 12:19:29;;;;;;;3.08;1.27;;;17.50;99.90;;;;;;4894832;29;20020;-82
2023/08/31 12:21:55;;;;;;;2.58;1.40;;;17.40;99.90;;;;;;4902031;29;20576;-81
2023/08/31 12:24:23;;;;;;;4.60;1.90;;;17.20;99.90;;;;;;4899534;29;20392;-81
2023/08/31 12:26:49;;;;;;;5.18;1.58;;;17.00;99.90;;;;;;4902537;29;20044;-82
2023/08/31 12:29:15;;;;;;;4.68;1.88;;;16.50;99.90;;;;;;4894002;29;20064;-84
2023/08/31 12:31:41;;;;;;;4.82;2.13;;;16.20;99.90;;;;;;4894013;29;20409;-84
2023/08/31 12:34:07;;;;;;;6.18;2.08;;;15.70;99.90;;;;;;4900044;29;20106;-83
2023/08/31 12:36:33;;;;;;;5.03;2.13;;;15.30;99.90;;;;;;4902720;29;20044;-83
2023/08/31 12:39:05;;;;;;;2.10;1.70;;;15.00;99.90;;;;;;4900286;29;20077;-86
2023/08/31 12:41:31;;;;;;;3.00;1.70;;;14.70;99.90;;;;;;4895531;29;20050;-82
2023/08/31 12:43:57;;;;;;;4.95;1.98;;;14.60;99.90;;;;;;4901128;29;20036;-84
2023/08/31 12:46:24;;;;;;;9.43;2.33;;;14.70;99.90;;;;;;4921268;29;20063;-85
2023/08/31 12:48:50;;;;;;;6.47;1.70;;;14.60;99.90;;;;;;4919747;29;20135;-84
2023/08/31 12:51:16;;;;;;;3.60;1.98;;;14.60;99.90;;;;;;4905234;29;20057;-84